Time;durP1;ratioP1;P1;durP2;ratioP2;P2;SDS_P1;SDS_P2;PMS_P1;PMS_P2;Temp;Humidity;BMP_temperature;BMP_pressure;BME280_temperature;BME280_humidity;BME280_pressure;Samples;Min_cycle;Max_cycle;Signal;HPM_P1;HPM_P2
2021/10/25 00:00:56;;;;;;;18.57;15.73;;;3.80;99.90;;;;;;5049899;28;20843;-66
2021/10/25 00:03:23;;;;;;;22.43;15.70;;;3.80;99.90;;;;;;5049713;28;20456;-66
2021/10/25 00:05:50;;;;;;;24.07;16.80;;;3.70;99.90;;;;;;5049894;28;20482;-66
2021/10/25 00:08:16;;;;;;;20.63;17.03;;;3.60;99.90;;;;;;5049579;28;20439;-66
2021/10/25 00:10:45;;;;;;;20.93;16.77;;;3.70;99.90;;;;;;5049783;28;20452;-65
2021/10/25 00:13:12;;;;;;;22.00;16.43;;;3.60;99.90;;;;;;5049842;28;20443;-66
2021/10/25 00:15:40;;;;;;;19.03;17.03;;;3.50;99.90;;;;;;5049634;28;20550;-66
2021/10/25 00:18:07;;;;;;;18.10;16.03;;;3.60;99.90;;;;;;5049353;28;20828;-66
2021/10/25 00:20:34;;;;;;;21.30;17.83;;;3.50;99.90;;;;;;5050477;28;20948;-66
2021/10/25 00:23:03;;;;;;;17.80;15.30;;;3.50;99.90;;;;;;5053772;28;20446;-66
2021/10/25 00:25:30;;;;;;;17.77;15.63;;;3.50;99.90;;;;;;5053386;28;20497;-66
2021/10/25 00:27:57;;;;;;;17.83;14.80;;;3.40;99.90;;;;;;5053156;28;20790;-66
2021/10/25 00:30:24;;;;;;;16.63;14.83;;;3.40;99.90;;;;;;5053649;28;20475;-66
2021/10/25 00:32:52;;;;;;;18.37;14.10;;;3.40;99.90;;;;;;5053435;28;20448;-66
2021/10/25 00:35:19;;;;;;;18.30;15.37;;;3.40;99.90;;;;;;5052979;28;20479;-66
2021/10/25 00:37:46;;;;;;;20.20;15.87;;;3.30;99.90;;;;;;5052790;28;20448;-66
2021/10/25 00:40:13;;;;;;;17.90;15.30;;;3.30;99.90;;;;;;5053191;28;20451;-66
2021/10/25 00:42:40;;;;;;;18.93;15.70;;;3.30;99.90;;;;;;5052933;28;20439;-66
2021/10/25 00:45:07;;;;;;;20.30;16.37;;;3.30;99.90;;;;;;5052896;28;20459;-66
2021/10/25 00:47:34;;;;;;;20.10;15.77;;;3.20;99.90;;;;;;5052750;28;20445;-65
2021/10/25 00:50:02;;;;;;;21.70;16.87;;;3.20;99.90;;;;;;5053208;28;20852;-65
2021/10/25 00:52:30;;;;;;;19.80;16.03;;;3.20;99.90;;;;;;5052876;28;20450;-65
2021/10/25 00:54:56;;;;;;;17.87;15.40;;;3.20;99.90;;;;;;5052946;28;20464;-66
2021/10/25 00:57:23;;;;;;;22.67;16.30;;;3.20;99.90;;;;;;5052541;28;21208;-66
2021/10/25 00:59:51;;;;;;;19.60;15.33;;;3.20;99.90;;;;;;5053045;28;20542;-66
2021/10/25 01:02:18;;;;;;;19.13;16.27;;;3.20;99.90;;;;;;5053058;28;20463;-66
2021/10/25 01:04:45;;;;;;;18.70;15.33;;;3.20;99.90;;;;;;5052967;28;20467;-71
2021/10/25 01:07:13;;;;;;;17.30;14.27;;;3.20;99.90;;;;;;5052619;28;20443;-66
2021/10/25 01:09:42;;;;;;;21.83;16.80;;;3.30;99.90;;;;;;5052507;28;20826;-66
2021/10/25 01:12:10;;;;;;;22.77;16.60;;;3.20;99.90;;;;;;5050087;28;20447;-64
2021/10/25 01:14:36;;;;;;;16.43;14.30;;;3.20;99.90;;;;;;5052092;28;20822;-66
2021/10/25 01:17:03;;;;;;;19.70;16.23;;;3.20;99.90;;;;;;5052095;28;20436;-66
2021/10/25 01:19:31;;;;;;;18.53;15.40;;;3.20;99.90;;;;;;5052385;28;20558;-66
2021/10/25 01:21:59;;;;;;;18.70;14.47;;;3.20;99.90;;;;;;5052489;28;20497;-66
2021/10/25 01:24:26;;;;;;;20.30;16.20;;;3.10;99.90;;;;;;5052464;28;20467;-66
2021/10/25 01:26:53;;;;;;;18.60;15.80;;;3.10;99.90;;;;;;5052789;28;20817;-66
2021/10/25 01:29:20;;;;;;;19.17;15.73;;;3.10;99.90;;;;;;5052708;28;20440;-66
2021/10/25 01:31:48;;;;;;;23.70;17.30;;;3.20;99.90;;;;;;5051462;28;20444;-66
2021/10/25 01:34:15;;;;;;;22.43;17.23;;;3.20;99.90;;;;;;5051733;28;21147;-65
2021/10/25 01:36:42;;;;;;;18.70;16.13;;;3.20;99.90;;;;;;5052208;28;20456;-66
2021/10/25 01:39:11;;;;;;;22.50;16.83;;;3.20;99.90;;;;;;5051992;28;20480;-65
2021/10/25 01:41:38;;;;;;;24.03;17.57;;;3.20;99.90;;;;;;5052328;28;20452;-65
2021/10/25 01:44:11;;;;;;;26.07;18.30;;;3.30;99.90;;;;;;5052331;28;20448;-65
2021/10/25 01:46:38;;;;;;;23.00;16.67;;;3.40;99.90;;;;;;5051603;28;20444;-65
2021/10/25 01:49:06;;;;;;;24.30;17.87;;;3.30;99.90;;;;;;5052205;28;21060;-65
2021/10/25 01:51:33;;;;;;;22.30;16.50;;;3.30;99.90;;;;;;5052061;28;21168;-65
2021/10/25 01:54:00;;;;;;;20.20;17.40;;;3.30;99.90;;;;;;5051906;28;20450;-65
2021/10/25 01:56:29;;;;;;;22.37;18.07;;;3.30;99.90;;;;;;5051522;28;20455;-65
2021/10/25 01:58:55;;;;;;;24.07;17.67;;;3.30;99.90;;;;;;5051836;28;21008;-65
2021/10/25 02:01:23;;;;;;;21.90;16.13;;;3.30;99.90;;;;;;5051948;28;20431;-65
2021/10/25 02:03:53;;;;;;;22.43;16.83;;;3.40;99.90;;;;;;5051903;28;20455;-65
2021/10/25 02:06:20;;;;;;;20.87;15.47;;;3.40;99.90;;;;;;5051309;28;20990;-65
2021/10/25 02:08:47;;;;;;;22.10;15.57;;;3.30;99.90;;;;;;5051288;28;20984;-66
2021/10/25 02:11:15;;;;;;;21.17;16.87;;;3.20;99.90;;;;;;5051381;28;20444;-65
2021/10/25 02:13:43;;;;;;;21.07;15.60;;;3.10;99.90;;;;;;5051328;28;20452;-65
2021/10/25 02:16:11;;;;;;;19.83;15.60;;;3.00;99.90;;;;;;5051089;28;20464;-65
2021/10/25 02:18:38;;;;;;;22.67;15.03;;;3.00;99.90;;;;;;5050979;28;20924;-65
2021/10/25 02:21:05;;;;;;;22.73;15.87;;;3.00;99.90;;;;;;5051050;28;20436;-65
2021/10/25 02:23:32;;;;;;;18.30;14.40;;;3.00;99.90;;;;;;5051233;28;20439;-65
2021/10/25 02:25:59;;;;;;;22.47;16.53;;;2.90;99.90;;;;;;5051149;28;20482;-65
2021/10/25 02:28:26;;;;;;;20.50;16.27;;;3.00;99.90;;;;;;5050707;28;20433;-65
2021/10/25 02:30:55;;;;;;;20.67;17.00;;;3.00;99.90;;;;;;5051213;28;20452;-65
2021/10/25 02:33:22;;;;;;;20.70;16.73;;;3.00;99.90;;;;;;5050798;28;20512;-66
2021/10/25 02:35:49;;;;;;;20.70;15.60;;;3.00;99.90;;;;;;5050783;28;20478;-65
2021/10/25 02:38:17;;;;;;;18.00;14.97;;;3.00;99.90;;;;;;5050347;28;20941;-65
2021/10/25 02:40:44;;;;;;;15.67;13.67;;;3.00;99.90;;;;;;5050805;28;20476;-65
2021/10/25 02:43:11;;;;;;;19.93;14.90;;;3.00;99.90;;;;;;5050668;28;20432;-65
2021/10/25 02:45:39;;;;;;;20.00;15.10;;;3.00;99.90;;;;;;5050709;28;21012;-65
2021/10/25 02:48:08;;;;;;;17.30;15.43;;;3.00;99.90;;;;;;5050224;28;20446;-65
2021/10/25 02:50:35;;;;;;;17.93;14.87;;;3.00;99.90;;;;;;5051146;28;20447;-65
2021/10/25 02:53:02;;;;;;;19.50;15.20;;;3.00;99.90;;;;;;5050871;28;20447;-65
2021/10/25 02:55:29;;;;;;;18.67;14.63;;;3.00;99.90;;;;;;5050898;28;20471;-65
2021/10/25 02:57:56;;;;;;;25.70;17.57;;;3.00;99.90;;;;;;5050372;28;20467;-65
2021/10/25 03:00:23;;;;;;;19.87;15.80;;;3.00;99.90;;;;;;5050324;28;20494;-65
2021/10/25 03:02:50;;;;;;;21.87;15.50;;;3.00;99.90;;;;;;5050510;28;20446;-65
2021/10/25 03:05:18;;;;;;;21.87;16.60;;;2.90;99.90;;;;;;5050415;28;20452;-65
2021/10/25 03:07:45;;;;;;;19.57;15.90;;;3.00;99.90;;;;;;5050646;28;20432;-65
2021/10/25 03:10:12;;;;;;;21.50;15.27;;;2.90;99.90;;;;;;5050764;28;20538;-65
2021/10/25 03:12:39;;;;;;;19.53;16.83;;;2.90;99.90;;;;;;5050539;28;20442;-65
2021/10/25 03:15:08;;;;;;;20.17;15.67;;;2.90;99.90;;;;;;5050164;28;20467;-65
2021/10/25 03:17:36;;;;;;;21.70;15.67;;;2.80;99.90;;;;;;5050180;28;20852;-65
2021/10/25 03:20:03;;;;;;;20.37;15.47;;;2.80;99.90;;;;;;5050184;28;20476;-65
2021/10/25 03:22:31;;;;;;;18.93;15.73;;;2.80;99.90;;;;;;5050189;28;20467;-65
2021/10/25 03:24:58;;;;;;;23.27;16.40;;;2.80;99.90;;;;;;5049971;28;20831;-66
2021/10/25 03:27:26;;;;;;;24.80;17.07;;;2.90;99.90;;;;;;5049881;28;20443;-65
2021/10/25 03:29:53;;;;;;;19.63;14.83;;;2.80;99.90;;;;;;5049959;28;20844;-66
2021/10/25 03:32:20;;;;;;;21.00;16.27;;;2.80;99.90;;;;;;5050362;28;20439;-65
2021/10/25 03:34:47;;;;;;;19.47;15.47;;;2.80;99.90;;;;;;5049958;28;20843;-65
2021/10/25 03:37:14;;;;;;;21.27;16.17;;;2.80;99.90;;;;;;5049479;28;20432;-65
2021/10/25 03:39:45;;;;;;;18.53;14.80;;;2.80;99.90;;;;;;5050148;28;20504;-65
2021/10/25 03:42:17;;;;;;;23.23;15.60;;;2.70;99.90;;;;;;5049923;28;20804;-65
2021/10/25 03:44:47;;;;;;;21.00;15.60;;;2.70;99.90;;;;;;5050171;28;20456;-65
2021/10/25 03:47:18;;;;;;;22.00;16.23;;;2.70;99.90;;;;;;5049586;28;20929;-65
2021/10/25 03:49:48;;;;;;;18.30;14.33;;;2.60;99.90;;;;;;5050045;28;20519;-65
2021/10/25 03:52:21;;;;;;;20.50;15.53;;;2.60;99.90;;;;;;5049879;28;20523;-65
2021/10/25 03:54:56;;;;;;;21.00;15.70;;;2.60;99.90;;;;;;5049896;28;20475;-65
2021/10/25 03:57:46;;;;;;;22.17;16.27;;;2.60;99.90;;;;;;5053951;28;20844;-65
2021/10/25 04:00:34;;;;;;;18.50;15.50;;;2.60;99.90;;;;;;5054084;28;20480;-65
2021/10/25 04:25:39;;;;;;;21.60;16.00;;;2.70;99.90;;;;;;5053666;28;20443;-65
2021/10/25 04:28:09;;;;;;;20.47;16.00;;;2.80;99.90;;;;;;5053248;28;20451;-65
2021/10/25 04:30:37;;;;;;;17.93;15.03;;;2.80;99.90;;;;;;5054066;28;20439;-66
2021/10/25 04:33:06;;;;;;;22.97;15.73;;;2.70;99.90;;;;;;5053401;28;20444;-65
2021/10/25 04:35:33;;;;;;;20.17;15.90;;;2.70;99.90;;;;;;5053331;28;20468;-65
2021/10/25 04:38:00;;;;;;;21.13;15.20;;;2.70;99.90;;;;;;5053409;28;20450;-65
2021/10/25 04:40:27;;;;;;;18.43;16.20;;;2.60;99.90;;;;;;5053141;28;21019;-65
2021/10/25 04:42:55;;;;;;;19.63;15.53;;;2.60;99.90;;;;;;5053800;28;20457;-65
2021/10/25 04:45:23;;;;;;;17.27;15.43;;;2.60;99.90;;;;;;5053419;28;20558;-66
2021/10/25 04:47:52;;;;;;;20.60;15.87;;;2.60;99.90;;;;;;5053110;28;20534;-65
2021/10/25 04:50:19;;;;;;;18.20;16.17;;;2.60;99.90;;;;;;5053270;28;20447;-65
2021/10/25 04:52:46;;;;;;;23.50;16.30;;;2.60;99.90;;;;;;5053368;28;20466;-66
2021/10/25 04:55:13;;;;;;;20.33;15.30;;;2.70;99.90;;;;;;5052725;28;20467;-68
2021/10/25 04:57:40;;;;;;;18.40;15.73;;;2.70;99.90;;;;;;5052711;28;20462;-69
2021/10/25 05:00:08;;;;;;;21.23;17.53;;;2.70;99.90;;;;;;5052805;28;20853;-65
2021/10/25 05:02:36;;;;;;;25.83;17.10;;;2.80;99.90;;;;;;5052995;28;20448;-65
2021/10/25 05:05:04;;;;;;;22.87;17.40;;;2.90;99.90;;;;;;5052525;28;20500;-65
2021/10/25 05:07:31;;;;;;;22.17;17.87;;;2.90;99.90;;;;;;5052282;28;20444;-65
2021/10/25 05:09:59;;;;;;;19.57;16.80;;;3.00;99.90;;;;;;5052888;28;20443;-65
2021/10/25 05:12:26;;;;;;;19.33;15.80;;;3.00;99.90;;;;;;5046181;28;20487;-65
2021/10/25 05:14:53;;;;;;;23.10;16.87;;;3.00;99.90;;;;;;5050374;28;21018;-64
2021/10/25 05:17:20;;;;;;;21.60;17.10;;;2.90;99.90;;;;;;5044920;28;20527;-65
2021/10/25 05:19:48;;;;;;;21.33;15.87;;;2.90;99.90;;;;;;5052270;28;20478;-65
2021/10/25 05:22:15;;;;;;;23.40;18.40;;;3.00;99.90;;;;;;5052108;28;20450;-65
2021/10/25 05:24:43;;;;;;;22.40;18.47;;;3.00;99.90;;;;;;5052261;28;20468;-64
2021/10/25 05:27:11;;;;;;;23.37;19.03;;;3.10;99.90;;;;;;5051726;28;20456;-64
2021/10/25 05:29:38;;;;;;;26.30;18.70;;;3.20;99.90;;;;;;5052607;28;20444;-64
2021/10/25 05:32:05;;;;;;;30.73;18.90;;;3.30;99.90;;;;;;5051965;28;20454;-65
2021/10/25 05:34:32;;;;;;;27.70;20.50;;;3.40;99.90;;;;;;5049071;28;20543;-65
2021/10/25 05:37:01;;;;;;;28.30;18.53;;;3.40;99.90;;;;;;5052178;28;20452;-66
2021/10/25 05:39:28;;;;;;;22.50;18.30;;;3.40;99.90;;;;;;5060951;28;20479;-65
2021/10/25 05:41:55;;;;;;;24.80;18.07;;;3.40;99.90;;;;;;5059121;28;20453;-65
2021/10/25 05:44:22;;;;;;;25.10;18.10;;;3.30;99.90;;;;;;5053694;28;20552;-65
2021/10/25 05:46:49;;;;;;;21.03;17.50;;;3.20;99.90;;;;;;5049233;28;20537;-65
2021/10/25 05:49:16;;;;;;;25.00;17.03;;;3.20;99.90;;;;;;5049019;28;20478;-65
2021/10/25 05:51:43;;;;;;;23.07;17.00;;;3.10;99.90;;;;;;5049884;28;20450;-65
2021/10/25 05:54:11;;;;;;;21.97;17.00;;;3.10;99.90;;;;;;5048347;28;20471;-65
2021/10/25 05:56:38;;;;;;;23.47;18.03;;;3.00;99.90;;;;;;5049350;28;20448;-65
2021/10/25 05:59:05;;;;;;;23.80;17.93;;;3.10;99.90;;;;;;5057097;28;20947;-63
2021/10/25 06:01:36;;;;;;;23.23;17.10;;;3.10;99.90;;;;;;5057187;28;20567;-65
2021/10/25 06:04:05;;;;;;;22.40;17.40;;;3.10;99.90;;;;;;5049263;28;21099;-65
2021/10/25 06:06:32;;;;;;;22.93;18.17;;;3.10;99.90;;;;;;5049351;28;20452;-65
2021/10/25 06:08:59;;;;;;;22.73;19.00;;;3.20;99.90;;;;;;5049758;28;20937;-64
2021/10/25 06:11:28;;;;;;;25.10;18.73;;;3.20;99.90;;;;;;5051291;28;20494;-65
2021/10/25 06:13:59;;;;;;;24.20;18.73;;;3.30;99.90;;;;;;5051325;28;20771;-65
2021/10/25 06:16:36;;;;;;;25.50;19.30;;;3.30;99.90;;;;;;5050826;28;20432;-64
2021/10/25 06:19:03;;;;;;;25.83;19.53;;;3.30;99.90;;;;;;5050743;28;20443;-65
2021/10/25 06:21:30;;;;;;;22.93;18.60;;;3.40;99.90;;;;;;5051053;28;20476;-65
2021/10/25 06:23:58;;;;;;;26.53;20.03;;;3.40;99.90;;;;;;5050895;28;20941;-65
2021/10/25 06:26:25;;;;;;;25.30;19.50;;;3.40;99.90;;;;;;5050602;28;20474;-65
2021/10/25 06:28:53;;;;;;;24.80;19.73;;;3.50;99.90;;;;;;5050859;28;20702;-65
2021/10/25 06:31:20;;;;;;;26.90;20.37;;;3.50;99.90;;;;;;5051098;28;20810;-65
2021/10/25 06:33:47;;;;;;;28.87;20.00;;;3.60;99.90;;;;;;5050874;28;20447;-65
2021/10/25 06:36:18;;;;;;;25.33;20.07;;;3.60;99.90;;;;;;5050660;28;20491;-64
2021/10/25 06:38:52;;;;;;;26.80;20.53;;;3.60;99.90;;;;;;5050939;28;20535;-65
2021/10/25 06:41:19;;;;;;;22.00;19.10;;;3.70;99.90;;;;;;5050369;28;21170;-65
2021/10/25 06:43:46;;;;;;;26.10;20.07;;;3.70;99.90;;;;;;5050661;28;20436;-65
2021/10/25 06:46:14;;;;;;;32.27;21.13;;;3.70;99.90;;;;;;5050586;28;20483;-65
2021/10/25 06:48:41;;;;;;;28.23;20.80;;;3.70;99.90;;;;;;5050925;28;20525;-65
2021/10/25 06:51:08;;;;;;;25.33;20.53;;;3.70;99.90;;;;;;5050498;28;20519;-65
2021/10/25 06:53:35;;;;;;;25.70;21.27;;;3.70;99.90;;;;;;5050408;28;20454;-64
2021/10/25 06:56:02;;;;;;;23.77;18.90;;;3.70;99.90;;;;;;5050144;28;20466;-65
2021/10/25 06:58:29;;;;;;;24.90;19.87;;;3.70;99.90;;;;;;5050384;28;20432;-65
2021/10/25 07:00:58;;;;;;;23.57;20.83;;;3.70;99.90;;;;;;5050374;28;20482;-65
2021/10/25 07:03:27;;;;;;;25.50;20.70;;;3.80;99.90;;;;;;5050462;28;20802;-65
2021/10/25 07:05:54;;;;;;;25.10;19.77;;;3.80;99.90;;;;;;5050227;28;20468;-65
2021/10/25 07:08:21;;;;;;;25.37;18.90;;;3.90;99.90;;;;;;5049820;28;20443;-65
2021/10/25 07:10:48;;;;;;;24.00;18.90;;;3.90;99.90;;;;;;5050368;28;20501;-65
2021/10/25 07:13:15;;;;;;;26.40;19.07;;;3.90;99.90;;;;;;5050264;28;20448;-65
2021/10/25 07:15:46;;;;;;;22.60;19.20;;;4.00;99.90;;;;;;5050106;28;20851;-65
2021/10/25 07:18:18;;;;;;;25.03;19.10;;;4.10;99.90;;;;;;5049904;28;20471;-65
2021/10/25 07:21:01;;;;;;;23.57;18.70;;;4.10;99.90;;;;;;5050076;28;20995;-65
2021/10/25 08:02:19;;;;;;;19.30;16.80;;;7.10;99.90;;;;;;5049724;28;20467;-65
2021/10/25 08:07:35;;;;;;;19.10;16.90;;;7.50;99.90;;;;;;5049144;28;20408;-64
2021/10/25 08:10:07;;;;;;;22.80;19.33;;;7.80;99.90;;;;;;5049172;28;20432;-65
2021/10/25 08:12:35;;;;;;;18.07;16.17;;;8.00;99.90;;;;;;5049305;28;20436;-65
2021/10/25 08:15:05;;;;;;;21.63;16.77;;;8.10;99.90;;;;;;5049056;28;20490;-65
2021/10/25 08:17:41;;;;;;;19.20;15.70;;;8.30;99.90;;;;;;5048942;28;20447;-65
2021/10/25 08:20:09;;;;;;;16.13;14.30;;;8.40;99.90;;;;;;5049526;28;20432;-65
2021/10/25 08:22:37;;;;;;;16.37;14.63;;;8.50;99.90;;;;;;5049569;28;20436;-64
2021/10/25 08:25:07;;;;;;;16.67;14.60;;;8.60;99.90;;;;;;5049309;28;21207;-65
2021/10/25 08:27:34;;;;;;;16.67;14.20;;;8.80;99.90;;;;;;5049080;28;20448;-65
2021/10/25 08:30:03;;;;;;;14.97;13.57;;;8.80;99.90;;;;;;5049495;28;20443;-65
2021/10/25 08:33:00;;;;;;;18.43;13.80;;;9.00;99.90;;;;;;5049320;28;20432;-65
2021/10/25 08:35:50;;;;;;;21.20;15.73;;;9.20;99.90;;;;;;5049110;28;20479;-65
2021/10/25 08:41:06;;;;;;;15.63;13.47;;;9.50;99.90;;;;;;5031737;28;20484;-65
2021/10/25 08:43:34;;;;;;;13.97;12.37;;;9.60;99.90;;;;;;5053034;28;20475;-65
2021/10/25 08:46:04;;;;;;;16.90;13.10;;;9.80;99.90;;;;;;5052841;28;20456;-65
2021/10/25 08:48:32;;;;;;;17.17;14.43;;;9.90;99.90;;;;;;5052526;28;20447;-65
2021/10/25 08:50:59;;;;;;;14.90;13.13;;;10.10;99.90;;;;;;5052695;28;20926;-65
2021/10/25 08:53:26;;;;;;;15.87;14.23;;;10.10;99.90;;;;;;5052806;28;20804;-64
2021/10/25 08:55:53;;;;;;;14.80;12.67;;;10.30;99.90;;;;;;5053009;28;20543;-65
2021/10/25 08:58:21;;;;;;;14.47;13.07;;;10.40;99.90;;;;;;5052766;28;20821;-65
2021/10/25 09:00:51;;;;;;;18.77;13.60;;;10.50;99.90;;;;;;5053444;28;20471;-65
2021/10/25 09:03:20;;;;;;;15.37;13.80;;;10.40;99.90;;;;;;5053223;28;20459;-65
2021/10/25 09:05:58;;;;;;;15.23;13.63;;;10.50;99.90;;;;;;5053165;28;20496;-65
2021/10/25 09:08:26;;;;;;;15.40;13.93;;;10.50;99.90;;;;;;5052556;28;20432;-65
2021/10/25 09:10:54;;;;;;;14.60;13.10;;;10.50;99.90;;;;;;5052740;28;20428;-65
2021/10/25 09:13:24;;;;;;;13.83;12.33;;;10.60;99.90;;;;;;5052246;28;20818;-65
2021/10/25 09:15:52;;;;;;;14.13;12.40;;;10.60;99.90;;;;;;5052188;28;20460;-65
2021/10/25 09:18:22;;;;;;;14.73;12.97;;;10.60;99.90;;;;;;5051933;28;20443;-65
2021/10/25 09:20:52;;;;;;;14.83;11.40;;;10.60;99.90;;;;;;5052192;28;20471;-65
2021/10/25 09:23:23;;;;;;;12.47;11.27;;;10.60;99.90;;;;;;5052221;28;20436;-65
2021/10/25 09:25:54;;;;;;;12.70;11.50;;;10.70;99.90;;;;;;5051823;28;20830;-65
2021/10/25 09:28:27;;;;;;;11.30;10.20;;;10.70;99.90;;;;;;5051911;28;20494;-65
2021/10/25 09:30:56;;;;;;;11.23;10.03;;;10.70;99.90;;;;;;5052224;28;20527;-65
2021/10/25 09:33:24;;;;;;;12.10;10.90;;;10.70;99.90;;;;;;5051935;28;20436;-65
2021/10/25 09:35:59;;;;;;;11.37;10.17;;;10.90;99.90;;;;;;5051728;28;20462;-65
2021/10/25 09:38:33;;;;;;;11.07;9.97;;;11.10;99.90;;;;;;5051619;28;20786;-65
2021/10/25 09:49:46;;;;;;;12.90;10.23;;;12.70;99.90;;;;;;5051919;28;20408;-65
2021/10/25 09:52:13;;;;;;;12.23;9.20;;;13.40;99.90;;;;;;5051645;28;20427;-65
2021/10/25 09:54:42;;;;;;;10.13;7.93;;;13.80;99.90;;;;;;5050788;28;20822;-66
2021/10/25 09:57:11;;;;;;;8.30;7.00;;;14.40;99.90;;;;;;5051128;28;20440;-65
2021/10/25 09:59:52;;;;;;;7.13;6.50;;;14.80;99.90;;;;;;5051685;28;20444;-65
2021/10/25 10:02:21;;;;;;;6.93;5.83;;;15.30;99.90;;;;;;5051501;28;20479;-65
2021/10/25 10:04:52;;;;;;;6.80;5.77;;;15.60;99.90;;;;;;5051470;28;20466;-65
2021/10/25 10:07:19;;;;;;;6.23;5.63;;;16.20;99.90;;;;;;5050943;28;20440;-66
2021/10/25 10:09:47;;;;;;;7.80;5.60;;;16.50;99.90;;;;;;5051223;28;20440;-65
2021/10/25 10:12:17;;;;;;;6.47;5.73;;;17.10;99.90;;;;;;5051164;28;20433;-66
2021/10/25 10:14:48;;;;;;;8.33;6.20;;;17.50;99.90;;;;;;5051330;28;20456;-66
2021/10/25 10:17:19;;;;;;;6.87;6.13;;;17.20;99.90;;;;;;5051106;28;20436;-65
2021/10/25 10:19:47;;;;;;;7.50;6.30;;;17.40;99.90;;;;;;5051169;28;20448;-65
2021/10/25 10:22:17;;;;;;;8.50;6.50;;;17.20;99.90;;;;;;5050819;28;20468;-65
2021/10/25 10:24:48;;;;;;;6.60;5.30;;;17.20;99.70;;;;;;5050739;28;20464;-66
2021/10/25 10:27:20;;;;;;;7.43;6.73;;;16.70;99.20;;;;;;5050498;28;20446;-65
2021/10/25 10:29:51;;;;;;;7.33;6.43;;;16.40;99.90;;;;;;5050956;28;20444;-65
2021/10/25 10:32:18;;;;;;;8.70;6.37;;;16.40;99.90;;;;;;5050630;28;20954;-65
2021/10/25 10:34:47;;;;;;;6.63;5.93;;;16.90;99.90;;;;;;5050020;28;20559;-66
2021/10/25 10:37:20;;;;;;;8.83;6.27;;;18.00;99.80;;;;;;5050477;28;20847;-66
2021/10/25 10:40:01;;;;;;;7.47;6.00;;;19.00;98.20;;;;;;5050812;28;20432;-66
2021/10/25 10:42:29;;;;;;;6.93;6.10;;;19.80;95.70;;;;;;5050586;28;21192;-66
2021/10/25 10:45:00;;;;;;;11.20;7.00;;;20.20;94.50;;;;;;5050550;28;20463;-66
2021/10/25 10:47:28;;;;;;;10.53;6.30;;;19.90;92.70;;;;;;5050316;28;20914;-65
2021/10/25 10:49:57;;;;;;;6.43;5.83;;;20.30;94.30;;;;;;5050882;28;20473;-66
2021/10/25 10:52:30;;;;;;;7.13;6.43;;;20.60;93.60;;;;;;5050480;28;20527;-66
2021/10/25 10:55:03;;;;;;;4.47;3.73;;;21.30;92.40;;;;;;5050566;28;20466;-66
2021/10/25 10:58:09;;;;;;;3.90;3.20;;;21.60;87.70;;;;;;5050145;28;20436;-66
2021/10/25 11:00:40;;;;;;;5.97;3.80;;;22.20;87.10;;;;;;5050683;28;20526;-66
2021/10/25 11:03:19;;;;;;;4.70;3.83;;;22.40;85.40;;;;;;5050691;28;20482;-66
2021/10/25 11:05:51;;;;;;;4.50;3.40;;;22.20;79.80;;;;;;5050465;28;20455;-66
2021/10/25 11:08:21;;;;;;;4.10;3.40;;;21.80;84.50;;;;;;5050735;28;20436;-66
2021/10/25 11:10:50;;;;;;;5.27;3.43;;;21.50;87.70;;;;;;5050831;28;20444;-66
2021/10/25 11:13:21;;;;;;;5.30;3.40;;;20.70;88.30;;;;;;5050878;28;20471;-66
2021/10/25 11:16:01;;;;;;;5.87;3.47;;;19.70;89.80;;;;;;5050186;28;20822;-66
2021/10/25 11:18:30;;;;;;;9.53;3.80;;;19.20;89.50;;;;;;5049728;28;20447;-66
2021/10/25 11:21:12;;;;;;;9.90;5.60;;;19.20;91.20;;;;;;5050184;28;20446;-66
2021/10/25 11:23:44;;;;;;;5.53;4.23;;;19.10;91.50;;;;;;5050280;28;20450;-66
2021/10/25 11:26:18;;;;;;;3.83;3.30;;;19.90;91.00;;;;;;5049956;28;20526;-66
2021/10/25 11:29:03;;;;;;;5.83;3.43;;;20.80;87.80;;;;;;5050056;28;20854;-66
2021/10/25 11:31:33;;;;;;;5.67;3.17;;;21.70;83.80;;;;;;5049894;28;20832;-66
2021/10/25 11:34:03;;;;;;;6.57;3.20;;;22.60;80.40;;;;;;5049474;28;20458;-66
2021/10/25 11:36:31;;;;;;;5.10;3.27;;;23.60;78.10;;;;;;5049572;28;20447;-66
2021/10/25 11:39:00;;;;;;;4.47;2.97;;;23.80;75.10;;;;;;5049712;28;20447;-66
2021/10/25 11:41:28;;;;;;;4.43;3.17;;;24.30;72.90;;;;;;5049855;28;21062;-66
2021/10/25 11:43:55;;;;;;;6.53;2.70;;;24.90;70.50;;;;;;5050067;28;20447;-66
2021/10/25 11:46:23;;;;;;;4.07;3.33;;;25.20;73.20;;;;;;5049374;28;20446;-66
2021/10/25 11:48:57;;;;;;;5.80;3.70;;;25.70;67.50;;;;;;5049596;28;20938;-67
2021/10/25 11:51:25;;;;;;;4.27;3.27;;;25.30;72.20;;;;;;5050297;28;20447;-66
2021/10/25 11:53:59;;;;;;;5.20;3.50;;;24.30;71.50;;;;;;5049853;28;20489;-66
2021/10/25 11:56:29;;;;;;;4.30;2.80;;;23.30;73.70;;;;;;5049230;28;20446;-66
2021/10/25 11:58:57;;;;;;;4.83;3.13;;;22.10;74.20;;;;;;5049682;28;20453;-65
2021/10/25 12:01:26;;;;;;;3.87;3.27;;;21.00;78.30;;;;;;5049382;28;20533;-66
2021/10/25 12:03:53;;;;;;;4.73;3.00;;;19.90;80.50;;;;;;5049357;28;20444;-66
2021/10/25 12:06:23;;;;;;;4.20;3.00;;;19.20;83.10;;;;;;5049016;28;20893;-65
2021/10/25 12:09:01;;;;;;;4.00;3.40;;;18.50;83.70;;;;;;5049988;28;20527;-66
2021/10/25 12:11:42;;;;;;;4.47;3.10;;;18.10;86.00;;;;;;5049577;28;20523;-66
2021/10/25 12:14:09;;;;;;;2.90;1.90;;;17.70;88.80;;;;;;5049510;28;20443;-66
2021/10/25 12:16:38;;;;;;;4.00;2.30;;;17.50;87.30;;;;;;5050426;28;20796;-65
2021/10/25 12:19:07;;;;;;;3.47;2.50;;;17.30;87.60;;;;;;5053241;28;20442;-66
2021/10/25 12:21:36;;;;;;;3.83;2.30;;;17.20;86.60;;;;;;5053105;28;21187;-66
2021/10/25 12:24:08;;;;;;;7.23;2.50;;;17.10;90.30;;;;;;5053134;28;20436;-66
2021/10/25 12:26:36;;;;;;;4.57;2.27;;;17.00;89.40;;;;;;5052988;28;20432;-65
2021/10/25 12:29:14;;;;;;;4.20;2.27;;;17.00;87.70;;;;;;5053125;28;20446;-65
2021/10/25 12:31:41;;;;;;;5.93;2.50;;;16.80;88.40;;;;;;5053387;28;20434;-65
2021/10/25 12:34:07;;;;;;;3.40;2.63;;;16.70;89.50;;;;;;5052908;28;20454;-66
2021/10/25 12:36:37;;;;;;;3.50;2.87;;;16.60;92.10;;;;;;5052896;28;20436;-66
2021/10/25 12:39:08;;;;;;;4.03;2.90;;;16.40;92.30;;;;;;5053038;28;20490;-65
2021/10/25 12:41:49;;;;;;;6.60;2.73;;;16.30;92.60;;;;;;5052969;28;20476;-66
2021/10/25 12:44:25;;;;;;;4.57;2.70;;;16.20;93.30;;;;;;5052890;28;20458;-66
2021/10/25 12:46:55;;;;;;;4.73;2.67;;;16.30;93.20;;;;;;5052487;28;20534;-65
2021/10/25 12:49:22;;;;;;;3.70;2.50;;;16.30;93.30;;;;;;5052802;28;20447;-65
2021/10/25 12:51:50;;;;;;;4.33;3.17;;;16.30;93.60;;;;;;5052793;28;20450;-65
2021/10/25 12:54:17;;;;;;;3.40;2.83;;;16.50;93.90;;;;;;5052358;28;20981;-65
2021/10/25 12:56:45;;;;;;;4.20;2.40;;;16.60;92.60;;;;;;5052363;28;20941;-66
2021/10/25 12:59:14;;;;;;;3.73;2.63;;;16.90;92.50;;;;;;5052547;28;20436;-65
2021/10/25 13:01:53;;;;;;;4.17;3.17;;;17.30;92.10;;;;;;5052665;28;20468;-66
2021/10/25 13:04:21;;;;;;;5.80;4.30;;;17.80;92.90;;;;;;5052544;28;20456;-66
2021/10/25 13:06:49;;;;;;;4.57;3.63;;;18.20;92.60;;;;;;5052205;28;20440;-66
2021/10/25 13:09:17;;;;;;;3.80;3.37;;;18.40;91.30;;;;;;5052393;28;20515;-66
2021/10/25 13:11:45;;;;;;;4.33;3.17;;;18.50;90.30;;;;;;5052673;28;20444;-66
2021/10/25 13:14:12;;;;;;;7.90;4.20;;;18.70;89.80;;;;;;5052548;28;20440;-66
2021/10/25 13:16:44;;;;;;;4.80;2.97;;;18.80;90.30;;;;;;5052038;28;20440;-65
2021/10/25 13:19:11;;;;;;;3.93;2.60;;;18.70;90.80;;;;;;5052248;28;20439;-65
2021/10/25 13:21:38;;;;;;;6.30;3.37;;;18.60;90.10;;;;;;5052397;28;20569;-65
2021/10/25 13:24:08;;;;;;;3.80;2.63;;;18.50;86.20;;;;;;5052191;28;20436;-66
2021/10/25 13:26:35;;;;;;;4.20;3.03;;;18.40;87.30;;;;;;5051845;28;20435;-66
2021/10/25 13:29:02;;;;;;;3.10;2.60;;;18.50;89.10;;;;;;5050849;28;20455;-65
2021/10/25 13:31:29;;;;;;;3.83;2.70;;;18.30;91.10;;;;;;5051998;28;20448;-66
2021/10/25 13:33:59;;;;;;;3.83;2.37;;;18.00;91.90;;;;;;5051563;28;20538;-65
2021/10/25 13:36:25;;;;;;;4.63;2.50;;;17.90;91.50;;;;;;5051537;28;20505;-65
2021/10/25 13:38:52;;;;;;;4.03;2.90;;;17.70;91.60;;;;;;5052053;28;20515;-66
2021/10/25 13:41:21;;;;;;;4.93;3.40;;;17.50;92.90;;;;;;5052330;28;20432;-66
2021/10/25 13:43:48;;;;;;;5.43;3.50;;;17.40;93.40;;;;;;5052155;28;20836;-66
2021/10/25 13:46:15;;;;;;;5.87;3.73;;;17.10;94.90;;;;;;5051460;28;20514;-65
2021/10/25 13:48:41;;;;;;;5.30;3.77;;;16.90;94.80;;;;;;5051567;28;20435;-66
2021/10/25 13:51:09;;;;;;;6.90;3.20;;;16.80;95.30;;;;;;5051628;28;20444;-66
2021/10/25 13:53:36;;;;;;;5.20;3.20;;;16.70;95.70;;;;;;5051885;28;20436;-65
2021/10/25 13:56:03;;;;;;;4.97;3.20;;;16.60;96.20;;;;;;5051634;28;20941;-66
2021/10/25 13:58:32;;;;;;;4.83;2.90;;;16.60;94.90;;;;;;5051394;28;20448;-66
2021/10/25 14:00:59;;;;;;;4.23;2.53;;;16.50;94.90;;;;;;5051467;28;21207;-66
2021/10/25 14:03:26;;;;;;;4.20;2.93;;;16.40;95.80;;;;;;5051426;28;20478;-66